Canefield Airport

Fair with dust haze
33oC (91oF)

Fair with dust haze


Winds: North westerly @ 02kts / 04km/h

Humidity: 75%

Barometric Pressure: 1014 mb

Accumulated Rainfall for September: 60.2 mm

Updated: 16:00 local time (20:00 UTC)

Douglas-Charles Airport

Partly cloudy with slight haze
28oC (82oF)

Partly cloudy with slight haze


Winds: South easterly @ 04kts / 07km/h

Humidity: 83%

Barometric Pressure: 1017 mb

Accumulated Rainfall for September: 153.3 mm

Updated: 18:00 local time (22:00 UTC)

Satellite Imagery

Satellite Imagery
Click image for larger view. (Source: National Hurricane Center).

Aviation Routine Report (METAR)

Douglas-Charles: METAR TDPD 162200Z 13004KT 9999 SCT019 28/25 Q1017=
Canefield: METAR TDCF 162000Z 31002KT 9999 FEW018 33/27 Q1014=